Airfield :
LOGIN :

Register | Disclaimer

   EN    FR    IT 

 










Legend :    VFR   Marginal VFR   IFR   Intensive IFR   Very Intensive IFR
Visi :
Ceiling :
>= 8 km
>= 3000ft
5 to 8 km
1000 to 3000 ft
1500m to 5 km
500 to 1000 ft
800 to 1500m
200 to 500 ft
< 800m
< 200 ft
Symbols :   Thunderstorms  Fog  Heavy snow  Heavy precipitations  Wind > 20 kt
SIGMETs :     Misc.  Thunderstorms  Icing  Turbulence  Mountain Waves  Volcanic Ashes







- Airport Elevation : 768 ft
- IATA code : MXP


LIMC - Milano Malpensa

CURRENT METAR :
  • 160720Z 36006KT CAVOK M01/M05 Q1019 NOSIG

EXPIRED METARs :
  • 160650Z 35006KT CAVOK M01/M05 Q1019 NOSIG
  • 160620Z 36007KT CAVOK M01/M05 Q1018 NOSIG
  • 160550Z 36007KT CAVOK M01/M05 Q1018 NOSIG
  • 160520Z 36009KT CAVOK M01/M05 Q1018 NOSIG
  • 160450Z 35006KT CAVOK M01/M06 Q1018 NOSIG

TAF TAF LIMC
Valid from the 16 at 06:00 until the 17 at 12:00 UTC


160500Z 1606/1712 VRB05KT CAVOK
BECMG
TEMPO 1614/1616 4000 DZ BKN014
BECMG 1709/1711 6000 NSW
No reported NOTAMs for that airfield.



MET'MAP, your aeronautical weather chart ! - Copyright ORBIFLY December 2007 - Disclaimer

ORBIFLY MET'MAP TEAM :

Programming & Development : Alexandra Zaïnal
Concept & Development : Baudouin d'Aumeries
Co-Development & Prog : Marc-Olivier Méhu
Technical & hardware support : Manuel Goepfert

Contact : metmap@orbifly.com




SOURCES & CREDITS :

   NOAA